Data for 06/10/2006

Time Sea-Level Adjusted Pressure Absolute Pressure Temperature Relative Humidity Dew Point   
(mb) (inHg) (mb) (inHg) (C) (F) (%) (C) (F)
00:05 1014 29.94 844 24.92 10.7 51.3 97 10.2 50.3
00:10 1014 29.94 844 24.92 10.7 51.3 97 10.2 50.4
00:15 1015 29.97 844 24.92 10.8 51.4 97 10.2 50.4
00:20 1015 29.97 844 24.92 10.7 51.2 97 10.2 50.3
00:25 1014 29.94 844 24.92 10.6 51.1 96 10.1 50.1
00:30 1014 29.94 844 24.92 10.5 50.9 96 9.9 49.9
00:35 1014 29.94 844 24.92 10.5 50.9 96 10 49.9
00:40 1014 29.94 844 24.92 10.5 50.8 96 9.9 49.8
00:45 1014 29.94 844 24.92 10.5 50.8 96 9.9 49.8
00:50 1014 29.94 843 24.89 10.5 50.9 96 9.9 49.8
00:55 1014 29.94 843 24.89 10.5 50.9 97 10 50
01:00 1014 29.94 843 24.89 10.5 50.9 96 10 49.9
01:05 1014 29.94 843 24.89 10.4 50.7 96 9.8 49.7
01:10 1014 29.94 843 24.89 10.3 50.5 97 9.7 49.5
01:15 1014 29.94 843 24.89 10.2 50.4 97 9.7 49.5
01:20 1014 29.94 843 24.89 10.2 50.4 97 9.8 49.6
01:25 1014 29.94 843 24.89 10.2 50.3 97 9.7 49.5
01:30 1014 29.94 843 24.89 10.2 50.4 97 9.8 49.6
01:35 1014 29.94 843 24.89 10.1 50.1 97 9.7 49.4
01:40 1014 29.94 843 24.89 10.1 50.2 98 9.8 49.6
01:45 1014 29.94 843 24.89 10.1 50.1 98 9.7 49.5
01:50 1014 29.94 843 24.89 10.1 50.2 98 9.7 49.5
01:55 1014 29.94 843 24.89 10 50 98 9.7 49.4
02:00 1014 29.94 843 24.89 10 50 98 9.7 49.5
02:05 1013 29.91 843 24.89 10.1 50.2 98 9.8 49.7
02:10 1013 29.91 843 24.89 10.2 50.4 98 9.9 49.8
02:15 1013 29.91 843 24.89 10.3 50.5 98 9.9 49.8
02:20 1013 29.91 843 24.89 10.3 50.5 97 9.9 49.8
02:25 1013 29.91 843 24.89 10.2 50.4 98 9.8 49.7
02:30 1013 29.91 843 24.89 10.3 50.5 98 9.9 49.8
02:35 1013 29.91 843 24.89 10.4 50.6 98 10 50
02:40 1013 29.91 843 24.89 10.4 50.8 97 10 50.1
02:45 1013 29.91 843 24.89 10.4 50.8 97 10 49.9
02:50 1013 29.91 843 24.89 10.5 50.8 97 9.9 49.9
02:55 1013 29.91 843 24.89 10.5 50.8 97 9.9 49.9
03:00 1013 29.91 843 24.89 10.4 50.8 97 9.9 49.9
03:05 1013 29.91 842 24.86 10.4 50.7 97 9.9 49.8
03:10 1013 29.91 842 24.86 10.5 50.8 97 10 49.9
03:15 1013 29.91 842 24.86 10.5 50.8 97 10 49.9
03:20 1013 29.91 842 24.86 10.4 50.8 97 9.9 49.8
03:25 1013 29.91 842 24.86 10.5 50.8 96 9.9 49.8
03:30 1013 29.91 842 24.86 10.5 50.8 96 9.9 49.8
03:35 1013 29.91 842 24.86 10.4 50.7 96 9.8 49.7
03:40 1013 29.91 842 24.86 10.4 50.7 96 9.8 49.7
03:45 1013 29.91 842 24.86 10.4 50.7 96 9.8 49.7
03:50 1013 29.91 842 24.86 10.3 50.6 96 9.8 49.6
03:55 1013 29.91 842 24.86 10.3 50.5 97 9.8 49.6
04:00 1013 29.91 842 24.86 10.2 50.4 96 9.6 49.3
04:05 1013 29.91 842 24.86 10.1 50.3 96 9.6 49.2
04:10 1013 29.91 842 24.86 10 50 96 9.4 48.8
04:15 1013 29.91 842 24.86 10 49.9 96 9.3 48.7
04:20 1013 29.91 842 24.86 10 50 96 9.5 49
04:25 1013 29.91 842 24.86 10 50 96 9.4 48.8
04:30 1013 29.91 842 24.86 9.9 49.9 95 9.2 48.6
04:35 1013 29.91 842 24.86 9.9 49.7 95 9.1 48.4
04:40 1013 29.91 842 24.86 9.9 49.8 95 9.1 48.3
04:45 1013 29.91 842 24.86 9.8 49.6 95 8.9 48.1
04:50 1013 29.91 842 24.86 9.7 49.4 95 8.8 47.9
04:55 1013 29.91 842 24.86 9.7 49.5 94 8.9 48
05:00 1013 29.91 842 24.86 9.8 49.6 95 9 48.1
05:05 1013 29.91 842 24.86 9.8 49.7 94 9 48.1
05:10 1013 29.91 842 24.86 9.7 49.5 95 8.9 48.1
05:15 1013 29.91 842 24.86 9.7 49.4 95 8.8 47.9
05:20 1013 29.91 842 24.86 9.7 49.4 95 9 48.1
05:25 1013 29.91 842 24.86 9.6 49.3 95 8.8 47.8
05:30 1013 29.91 842 24.86 9.6 49.2 95 8.8 47.8
05:35 1013 29.91 842 24.86 9.6 49.2 95 8.7 47.7
05:40 1013 29.91 842 24.86 9.6 49.2 95 8.7 47.7
05:45 1013 29.91 842 24.86 9.6 49.2 95 8.7 47.7
05:50 1013 29.91 842 24.86 9.6 49.3 94 8.7 47.7
05:55 1013 29.91 842 24.86 9.6 49.3 94 8.6 47.5
06:00 1013 29.91 843 24.89 9.7 49.4 94 8.7 47.7
06:05 1013 29.91 843 24.89 9.7 49.4 93 8.6 47.4
06:10 1013 29.91 843 24.89 9.7 49.5 92 8.5 47.4
06:15 1013 29.91 843 24.89 9.8 49.6 92 8.5 47.4
06:20 1013 29.91 843 24.89 9.7 49.5 91 8.3 46.9
06:25 1013 29.91 843 24.89 9.7 49.5 91 8.3 47
06:30 1014 29.94 843 24.89 9.7 49.5 90 8.1 46.6
06:35 1014 29.94 843 24.89 9.7 49.5 90 8.1 46.6
06:40 1014 29.94 843 24.89 9.7 49.4 90 8.1 46.5
06:45 1014 29.94 843 24.89 9.7 49.5 90 8.2 46.8
06:50 1014 29.94 843 24.89 9.7 49.5 91 8.3 47
06:55 1014 29.94 843 24.89 9.7 49.4 90 8.1 46.6
07:00 1014 29.94 843 24.89 9.7 49.4 90 8.2 46.8
07:05 1014 29.94 843 24.89 9.7 49.4 91 8.2 46.8
07:10 1014 29.94 843 24.89 9.7 49.4 91 8.3 46.9
07:15 1014 29.94 843 24.89 9.6 49.3 91 8.2 46.8
07:20 1014 29.94 843 24.89 9.5 49.1 92 8.2 46.8
07:25 1014 29.94 843 24.89 9.3 48.8 92 8.2 46.7
07:30 1014 29.94 843 24.89 9.5 49 93 8.3 47
07:35 1014 29.94 843 24.89 9.4 48.9 93 8.3 46.9
07:40 1014 29.94 843 24.89 9.4 48.9 94 8.5 47.2
07:45 1014 29.94 843 24.89 9.4 48.9 93 8.3 47
07:50 1014 29.94 843 24.89 9.4 49 93 8.4 47.2
07:55 1014 29.94 843 24.89 9.5 49.1 93 8.4 47.1
08:00 1014 29.94 843 24.89 9.4 48.9 93 8.3 46.9
08:05 1014 29.94 843 24.89 9.4 48.9 93 8.3 47
08:10 1014 29.94 843 24.89 9.4 49 94 8.5 47.2
08:15 1014 29.94 843 24.89 9.5 49 94 8.5 47.3
08:20 1014 29.94 843 24.89 9.5 49 94 8.6 47.4
08:25 1014 29.94 843 24.89 9.6 49.2 94 8.6 47.6
08:30 1014 29.94 843 24.89 9.7 49.5 93 8.6 47.5
08:35 1014 29.94 843 24.89 9.8 49.6 91 8.4 47.1
08:40 1014 29.94 843 24.89 9.8 49.6 92 8.4 47.2
08:45 1014 29.94 843 24.89 9.9 49.8 93 8.8 47.8
08:50 1014 29.94 843 24.89 10.1 50.2 89 8.4 47.1
08:55 1014 29.94 843 24.89 10.3 50.5 89 8.5 47.4
09:00 1014 29.94 843 24.89 10.4 50.6 87 8.3 46.9
09:05 1014 29.94 843 24.89 10.6 51 84 8 46.5
09:10 1014 29.94 843 24.89 10.8 51.4 83 8 46.3
09:15 1014 29.94 843 24.89 10.7 51.3 83 7.9 46.3
09:20 1014 29.94 843 24.89 10.7 51.3 83 8 46.4
09:25 1014 29.94 843 24.89 10.7 51.3 86 8.4 47.2
09:30 1014 29.94 843 24.89 10.6 51.1 86 8.3 47
09:35 1014 29.94 844 24.92 10.4 50.8 87 8.4 47.1
09:40 1014 29.94 844 24.92 10.1 50.1 89 8.3 46.9
09:45 1014 29.94 844 24.92 9.7 49.4 90 8 46.5
09:50 1015 29.97 844 24.92 9.5 49.1 88 7.7 45.9
09:55 1015 29.97 844 24.92 9.4 48.9 90 7.8 46
10:00 1015 29.97 844 24.92 9.2 48.6 89 7.5 45.4
10:05 1015 29.97 844 24.92 9.2 48.5 88 7.3 45.2
10:10 1015 29.97 844 24.92 9.1 48.4 89 7.4 45.3
10:15 1015 29.97 844 24.92 9.1 48.4 89 7.4 45.4
10:20 1015 29.97 844 24.92 9 48.2 89 7.3 45.1
10:25 1015 29.97 844 24.92 9 48.2 88 7.2 44.9
10:30 1015 29.97 844 24.92 9.1 48.3 88 7.2 45
10:35 1015 29.97 844 24.92 9.1 48.4 88 7.2 45
10:40 1015 29.97 844 24.92 9.2 48.6 87 7.2 45
10:45 1015 29.97 844 24.92 9.2 48.5 88 7.2 45
10:50 1015 29.97 844 24.92 9.1 48.4 88 7.3 45.1
10:55 1015 29.97 844 24.92 9.1 48.5 88 7.3 45.2
11:00 1015 29.97 844 24.92 9.2 48.6 85 6.9 44.4
11:05 1015 29.97 844 24.92 9.3 48.7 86 7.1 44.8
11:10 1015 29.97 844 24.92 9.3 48.7 86 7 44.7
11:15 1015 29.97 844 24.92 9.2 48.6 87 7.1 44.8
11:20 1015 29.97 845 24.95 9.3 48.7 86 7.1 44.7
11:25 1015 29.97 845 24.95 9.3 48.8 86 7.1 44.8
11:30 1015 29.97 845 24.95 9.6 49.3 85 7.3 45.1
11:35 1015 29.97 845 24.95 9.7 49.5 83 7 44.5
11:40 1015 29.97 845 24.95 9.8 49.7 85 7.4 45.3
11:45 1015 29.97 845 24.95 10.2 50.3 85 7.7 45.9
11:50 1015 29.97 845 24.95 10.4 50.8 82 7.5 45.4
11:55 1015 29.97 845 24.95 10.6 51 82 7.6 45.7
12:00 1015 29.97 845 24.95 10.5 50.9 80 7.2 45
12:05 1016 30 845 24.95 10.4 50.8 81 7.3 45.1
12:10 1016 30 845 24.95 10.8 51.5 79 7.3 45.1
12:15 1016 30 845 24.95 11.2 52.2 78 7.6 45.8
12:20 1016 30 845 24.95 11.4 52.5 74 6.9 44.4
12:25 1016 30 845 24.95 11 51.8 75 6.9 44.4
12:30 1016 30 845 24.95 11.1 51.9 75 6.8 44.3
12:35 1016 30 845 24.95 11.1 51.9 75 6.8 44.3
12:40 1016 30 845 24.95 10.9 51.7 76 6.9 44.4
12:45 1016 30 845 24.95 11.4 52.5 74 7 44.7
12:50 1016 30 845 24.95 11.5 52.7 71 6.5 43.8
12:55 1016 30 845 24.95 11.5 52.7 72 6.7 44.1
13:00 1016 30 845 24.95 11.8 53.2 70 6.6 43.9
13:05 1016 30 845 24.95 12.1 53.8 67 6.3 43.3
13:10 1016 30 845 24.95 12.1 53.9 68 6.5 43.6
13:15 1016 30 845 24.95 12 53.6 68 6.4 43.5
13:20 1016 30 845 24.95 11.8 53.2 69 6.3 43.4
13:25 1016 30 845 24.95 11.6 52.8 70 6.3 43.3
13:30 1016 30 845 24.95 11.4 52.4 76 7.2 45
13:35 1016 30 845 24.95 11.2 52.2 74 6.8 44.3
13:40 1016 30 845 24.95 11.7 53.1 71 6.8 44.2
13:45 1016 30 845 24.95 11.8 53.2 71 6.7 44
13:50 1016 30 845 24.95 12.6 54.6 65 6.2 43.2
13:55 1016 30 846 24.98 13.1 55.7 63 6.3 43.4
14:00 1016 30 845 24.95 13.3 55.9 64 6.7 44.1
14:05 1016 30 845 24.95 13.8 56.9 61 6.6 43.8
14:10 1016 30 846 24.98 13.5 56.3 62 6.5 43.7
14:15 1016 30 845 24.95 13.3 56 63 6.5 43.7
14:20 1016 30 846 24.98 13.9 57 61 6.5 43.7
14:25 1016 30 846 24.98 12.9 55.2 65 6.5 43.7
14:30 1016 30 846 24.98 13.3 55.9 61 6 42.8
14:35 1016 30 846 24.98 13.3 55.9 65 6.9 44.3
14:40 1016 30 846 24.98 13.3 55.9 63 6.5 43.6
14:45 1016 30 846 24.98 13.3 55.9 62 6.3 43.3
14:50 1016 30 846 24.98 13.1 55.7 64 6.6 43.9
14:55 1017 30.03 846 24.98 13.4 56.1 65 6.9 44.5
15:00 1017 30.03 846 24.98 13.1 55.7 64 6.6 43.9
15:05 1016 30 846 24.98 13.4 56.1 62 6.3 43.3
15:10 1016 30 846 24.98 14 57.2 60 6.4 43.6
15:15 1017 30.03 846 24.98 13.8 56.8 59 6 42.8
15:20 1017 30.03 846 24.98 13.2 55.7 64 6.5 43.8
15:25 1017 30.03 846 24.98 13.4 56.1 61 6 42.8
15:30 1016 30 846 24.98 14.4 57.8 58 6.4 43.5
15:35 1016 30 846 24.98 13.8 56.8 61 6.6 43.8
15:40 1016 30 846 24.98 14 57.1 58 6 42.8
15:45 1016 30 846 24.98 14.4 57.8 57 5.9 42.6
15:50 1016 30 846 24.98 15.2 59.3 55 6.2 43.1
15:55 1016 30 846 24.98 14.9 58.7 55 6.1 42.9
16:00 1016 30 846 24.98 15 58.9 56 6.3 43.3
16:05 1016 30 845 24.95 14.2 57.5 60 6.6 43.8
16:10 1016 30 846 24.98 13.5 56.3 61 6.2 43.2
16:15 1016 30 846 24.98 13.3 55.9 59 5.5 41.9
16:20 1016 30 846 24.98 14.5 58.2 56 5.9 42.5
16:25 1016 30 846 24.98 15.3 59.6 57 7 44.5
16:30 1016 30 845 24.95 14.7 58.5 56 6.2 43.1
16:35 1016 30 845 24.95 15.3 59.5 54 6.2 43.1
16:40 1016 30 845 24.95 15.9 60.6 52 6.1 43
16:45 1016 30 845 24.95 15.4 59.7 54 6.2 43.1
16:50 1016 30 845 24.95 15.5 59.9 55 6.5 43.7
16:55 1016 30 845 24.95 13.9 57 58 5.9 42.6
17:00 1016 30 845 24.95 14 57.1 59 6.1 43
17:05 1016 30 845 24.95 14.8 58.6 54 5.7 42.2
17:10 1016 30 845 24.95 15.7 60.2 53 6.1 42.9
17:15 1016 30 845 24.95 15.4 59.6 55 6.4 43.5
17:20 1016 30 845 24.95 14.5 58.1 55 5.8 42.4
17:25 1016 30 845 24.95 14.6 58.3 57 6.3 43.4
17:30 1016 30 845 24.95 15.5 59.9 54 6.4 43.5
17:35 1016 30 845 24.95 15.4 59.6 57 7 44.5
17:40 1016 30 845 24.95 14.9 58.9 56 6.2 43.2
17:45 1016 30 845 24.95 15.4 59.8 55 6.4 43.5
17:50 1016 30 845 24.95 15.6 60.1 55 6.7 44.1
17:55 1016 30 845 24.95 15.1 59.2 57 6.8 44.2
18:00 1016 30 845 24.95 14.4 57.9 59 6.5 43.8
18:05 1016 30 845 24.95 14.9 58.8 57 6.5 43.8
18:10 1016 30 845 24.95 15.3 59.5 55 6.4 43.5
18:15 1016 30 845 24.95 15.4 59.6 54 6.1 43
18:20 1016 30 845 24.95 15.4 59.6 54 6.3 43.3
18:25 1016 30 845 24.95 15.2 59.4 57 6.9 44.3
18:30 1016 30 845 24.95 14.6 58.2 56 6 42.8
18:35 1016 30 845 24.95 15.4 59.7 54 6.1 43
18:40 1016 30 845 24.95 15.6 60.1 53 6.3 43.3
18:45 1016 30 845 24.95 15.4 59.7 55 6.6 43.9
18:50 1016 30 845 24.95 15.5 60 54 6.3 43.3
18:55 1016 30 845 24.95 15.6 60.1 54 6.5 43.7
19:00 1016 30 845 24.95 15.2 59.3 55 6.4 43.5
19:05 1016 30 845 24.95 14.4 58 57 6.2 43.1
19:10 1016 30 845 24.95 14.4 58 57 6 42.8
19:15 1016 30 845 24.95 14.6 58.3 56 6 42.8
19:20 1016 30 845 24.95 14.3 57.7 58 6.2 43.2
19:25 1016 30 845 24.95 14.8 58.6 55 5.8 42.4
19:30 1016 30 845 24.95 14.8 58.6 57 6.5 43.7
19:35 1016 30 845 24.95 14.5 58.1 56 6 42.9
19:40 1016 30 845 24.95 14.2 57.5 58 6 42.9
19:45 1016 30 845 24.95 13.5 56.2 59 5.8 42.4
19:50 1016 30 845 24.95 13.4 56.1 60 5.9 42.7
19:55 1016 30 845 24.95 13.7 56.7 60 6.1 43
20:00 1016 30 845 24.95 14 57.3 60 6.4 43.6
20:05 1016 30 845 24.95 14.1 57.3 59 6.2 43.1
20:10 1016 30 845 24.95 14.1 57.3 58 6.1 43
20:15 1016 30 845 24.95 14.1 57.4 58 5.9 42.7
20:20 1016 30 845 24.95 14 57.2 59 6.3 43.3
20:25 1016 30 845 24.95 14 57.1 60 6.4 43.5
20:30 1016 30 845 24.95 13.9 57 60 6.4 43.5
20:35 1016 30 845 24.95 13.7 56.6 61 6.3 43.3
20:40 1016 30 846 24.98 13.7 56.7 60 6.2 43.2
20:45 1017 30.03 846 24.98 13.7 56.7 62 6.6 43.8
20:50 1017 30.03 846 24.98 13.7 56.7 64 7.2 44.9
20:55 1016 30 846 24.98 13.6 56.4 66 7.4 45.3
21:00 1017 30.03 846 24.98 13.3 55.9 66 7.1 44.8
21:05 1017 30.03 846 24.98 12.9 55.2 67 6.9 44.4
21:10 1017 30.03 846 24.98 12.6 54.8 68 7 44.6
21:15 1017 30.03 846 24.98 12.4 54.4 71 7.3 45.1
21:20 1017 30.03 846 24.98 12.2 53.9 72 7.3 45.2
21:25 1017 30.03 846 24.98 11.9 53.4 74 7.4 45.3
21:30 1017 30.03 846 24.98 11.7 53 75 7.5 45.5
21:35 1017 30.03 846 24.98 11.6 52.9 75 7.4 45.3
21:40 1017 30.03 846 24.98 11.6 52.8 76 7.4 45.4
21:45 1017 30.03 846 24.98 11.4 52.5 77 7.5 45.5
21:50 1017 30.03 846 24.98 11.2 52.2 78 7.5 45.5
21:55 1017 30.03 846 24.98 11.2 52.1 78 7.6 45.6
22:00 1017 30.03 846 24.98 11.1 51.9 79 7.6 45.6
22:05 1017 30.03 846 24.98 11.1 51.9 79 7.6 45.7
22:10 1017 30.03 846 24.98 11.1 52 78 7.5 45.4
22:15 1017 30.03 846 24.98 11.2 52.1 79 7.7 45.8
22:20 1017 30.03 846 24.98 10.8 51.5 81 7.8 46
22:25 1017 30.03 846 24.98 10.6 51 82 7.7 45.9
22:30 1017 30.03 846 24.98 10.6 51 83 7.7 45.9
22:35 1017 30.03 846 24.98 10.4 50.7 83 7.6 45.7
22:40 1017 30.03 846 24.98 10.4 50.7 83 7.6 45.7
22:45 1017 30.03 846 24.98 10.4 50.7 84 7.7 45.9
22:50 1017 30.03 846 24.98 10.4 50.6 84 7.7 45.9
22:55 1017 30.03 846 24.98 10.2 50.4 85 7.8 46
23:00 1017 30.03 846 24.98 10.1 50.1 85 7.7 45.9
23:05 1017 30.03 846 24.98 10.1 50.3 85 7.7 45.8
23:10 1017 30.03 846 24.98 10.4 50.7 84 7.7 45.9
23:15 1017 30.03 846 24.98 10.6 51 83 7.8 46
23:20 1017 30.03 846 24.98 10.7 51.2 82 7.7 45.9
23:25 1017 30.03 846 24.98 10.4 50.6 87 8.2 46.8
23:30 1017 30.03 846 24.98 9.9 49.8 87 7.9 46.2
23:35 1017 30.03 846 24.98 10 49.9 86 7.7 45.8
23:40 1017 30.03 846 24.98 10.1 50.1 86 7.8 46
23:45 1017 30.03 846 24.98 10.1 50.1 88 8.1 46.7
23:50 1017 30.03 846 24.98 10 50 88 8.2 46.7
23:55 1017 30.03 846 24.98 10 50.1 89 8.2 46.8
24:00 1017 30.03 846 24.98 10 50 89 8.3 47